createdAt,value
2023-03-28T00:01:06.636Z,102015.09
2023-03-28T00:03:39.255Z,102021.13
2023-03-28T00:06:11.055Z,102009.47
2023-03-28T00:08:39.341Z,102011.59
2023-03-28T00:11:20.009Z,102006.47
2023-03-28T00:13:47.794Z,102012.16
2023-03-28T00:16:14.386Z,102008.19
2023-03-28T00:18:42.843Z,102007.31
2023-03-28T00:21:19.552Z,102016.25
2023-03-28T00:23:46.467Z,102011.75
2023-03-28T00:26:13.482Z,102009.81
2023-03-28T00:28:40.038Z,102011.66
2023-03-28T00:31:08.170Z,102017.59
2023-03-28T00:33:34.689Z,102012.00
2023-03-28T00:36:01.515Z,102026.56
2023-03-28T00:38:28.857Z,102032.03
2023-03-28T00:40:57.615Z,102030.56
2023-03-28T00:43:43.322Z,102042.66
2023-03-28T00:46:22.866Z,102047.88
2023-03-28T00:48:51.939Z,102044.81
2023-03-28T00:51:21.573Z,102036.09
2023-03-28T00:53:48.577Z,102047.00
2023-03-28T00:56:17.585Z,102054.50
2023-03-28T00:58:44.917Z,102044.22
2023-03-28T01:01:12.478Z,102049.50
2023-03-28T01:03:41.346Z,102050.00
2023-03-28T01:06:08.906Z,102055.00
2023-03-28T01:08:38.439Z,102053.53
2023-03-28T01:11:05.862Z,102055.81
2023-03-28T01:13:36.915Z,102060.69
2023-03-28T01:16:04.468Z,102057.88
2023-03-28T01:18:34.513Z,102062.69
2023-03-28T01:21:33.735Z,102059.81
2023-03-28T01:24:42.958Z,102073.53
2023-03-28T01:27:42.161Z,102069.91
2023-03-28T01:30:20.764Z,102073.75
2023-03-28T01:33:05.361Z,102086.00
2023-03-28T01:35:52.626Z,102085.09
2023-03-28T01:38:34.176Z,102084.81
2023-03-28T01:41:09.266Z,102084.03
2023-03-28T01:43:44.101Z,102087.56
2023-03-28T01:46:16.846Z,102073.75
2023-03-28T01:48:57.896Z,102083.59
2023-03-28T01:51:55.284Z,102079.88
2023-03-28T01:54:48.109Z,102080.56
2023-03-28T01:57:33.842Z,102076.59
2023-03-28T02:00:22.248Z,102084.09
2023-03-28T02:02:53.613Z,102081.81
2023-03-28T02:05:21.364Z,102081.88
2023-03-28T02:07:48.916Z,102082.75
2023-03-28T02:10:16.929Z,102093.22
2023-03-28T02:12:48.327Z,102097.47
2023-03-28T02:15:16.722Z,102104.50
2023-03-28T02:17:45.766Z,102088.50
2023-03-28T02:20:16.006Z,102096.81
2023-03-28T02:22:50.946Z,102088.38
2023-03-28T02:25:18.379Z,102086.13
2023-03-28T02:27:46.396Z,102084.78
2023-03-28T02:30:13.858Z,102093.88
2023-03-28T02:32:43.899Z,102093.31
2023-03-28T02:35:10.795Z,102091.25
2023-03-28T02:37:59.626Z,102087.41
2023-03-28T02:40:47.874Z,102090.38
2023-03-28T02:43:26.771Z,102087.94
2023-03-28T02:46:12.823Z,102085.66
2023-03-28T02:49:07.058Z,102083.19
2023-03-28T02:51:58.591Z,102080.28
2023-03-28T02:54:24.906Z,102077.47
2023-03-28T02:57:10.447Z,102090.50
2023-03-28T02:59:44.631Z,102093.44
2023-03-28T03:02:16.464Z,102099.13
2023-03-28T03:04:43.007Z,102092.97
2023-03-28T03:07:09.532Z,102102.25
2023-03-28T03:09:36.467Z,102102.38
2023-03-28T03:12:02.860Z,102097.22
2023-03-28T03:14:29.292Z,102089.41
2023-03-28T03:16:55.695Z,102096.63
2023-03-28T03:19:22.219Z,102094.97
2023-03-28T03:21:49.903Z,102095.31
2023-03-28T03:24:16.284Z,102096.44
2023-03-28T03:26:42.719Z,102087.03
2023-03-28T03:29:09.111Z,102087.78
2023-03-28T03:31:35.632Z,102090.38
2023-03-28T03:34:02.129Z,102095.47
2023-03-28T03:36:30.542Z,102088.34
2023-03-28T03:38:57.027Z,102086.53
2023-03-28T03:41:23.458Z,102090.44
2023-03-28T03:43:49.987Z,102091.09
2023-03-28T03:46:16.473Z,102089.56
2023-03-28T03:48:49.393Z,102090.69
2023-03-28T03:51:16.630Z,102103.16
2023-03-28T03:53:43.089Z,102103.19
2023-03-28T03:56:09.857Z,102102.63
2023-03-28T03:58:36.407Z,102111.78
2023-03-28T04:01:03.148Z,102106.72
2023-03-28T04:03:29.862Z,102109.47
2023-03-28T04:05:58.023Z,102113.66
2023-03-28T04:08:24.771Z,102112.69
2023-03-28T04:10:51.270Z,102107.84
2023-03-28T04:13:17.696Z,102113.81
2023-03-28T04:15:46.759Z,102110.28
2023-03-28T04:18:15.298Z,102124.81
2023-03-28T04:20:43.367Z,102116.69
2023-03-28T04:23:10.111Z,102114.03
2023-03-28T04:25:36.853Z,102121.66
2023-03-28T04:28:03.422Z,102119.78
2023-03-28T04:30:29.870Z,102126.91
2023-03-28T04:32:56.407Z,102129.03
2023-03-28T04:35:24.107Z,102124.81
2023-03-28T04:37:50.597Z,102128.78
2023-03-28T04:40:17.620Z,102138.91
2023-03-28T04:42:44.303Z,102142.88
2023-03-28T04:45:11.078Z,102146.38
2023-03-28T04:47:39.802Z,102140.44
2023-03-28T04:50:08.336Z,102142.75
2023-03-28T04:52:36.058Z,102149.00
2023-03-28T04:55:02.728Z,102152.34
2023-03-28T04:57:29.149Z,102152.66
2023-03-28T04:59:56.032Z,102160.91
2023-03-28T05:02:22.545Z,102175.88
2023-03-28T05:04:48.991Z,102166.19
2023-03-28T05:07:15.428Z,102175.09
2023-03-28T05:09:42.006Z,102175.97
2023-03-28T05:12:08.416Z,102176.78
2023-03-28T05:14:34.846Z,102175.00
2023-03-28T05:17:01.305Z,102181.63
2023-03-28T05:19:27.717Z,102193.84
2023-03-28T05:21:54.169Z,102201.00
2023-03-28T05:24:20.738Z,102213.53
2023-03-28T05:26:47.221Z,102209.75
2023-03-28T05:29:13.573Z,102211.97
2023-03-28T05:31:40.067Z,102224.09
2023-03-28T05:34:06.784Z,102221.63
2023-03-28T05:36:33.196Z,102233.41
2023-03-28T05:38:59.590Z,102218.50
2023-03-28T05:41:26.510Z,102222.47
2023-03-28T05:43:52.980Z,102231.09
2023-03-28T05:46:19.462Z,102233.06
2023-03-28T05:48:49.737Z,102229.53
2023-03-28T05:51:17.067Z,102227.59
2023-03-28T05:53:43.567Z,102241.47
2023-03-28T05:56:10.102Z,102246.63
2023-03-28T05:58:36.486Z,102241.88
2023-03-28T06:01:04.359Z,102243.16
2023-03-28T06:03:32.476Z,102243.03
2023-03-28T06:05:59.876Z,102244.31
2023-03-28T06:08:27.303Z,102241.59
2023-03-28T06:10:53.723Z,102239.75
2023-03-28T06:13:20.670Z,102247.03
2023-03-28T06:15:47.063Z,102245.56
2023-03-28T06:18:13.469Z,102254.56
2023-03-28T06:20:39.829Z,102252.16
2023-03-28T06:23:06.358Z,102268.28
2023-03-28T06:25:32.784Z,102258.63
2023-03-28T06:27:59.270Z,102261.47
2023-03-28T06:30:25.902Z,102260.09
2023-03-28T06:32:52.495Z,102255.97
2023-03-28T06:35:18.983Z,102262.41
2023-03-28T06:37:45.372Z,102267.41
2023-03-28T06:40:11.869Z,102267.38
2023-03-28T06:42:38.277Z,102270.63
2023-03-28T06:45:04.919Z,102264.81
2023-03-28T06:47:31.363Z,102274.88
2023-03-28T06:49:57.794Z,102276.69
2023-03-28T06:52:24.249Z,102284.28
2023-03-28T06:54:51.266Z,102287.09
2023-03-28T06:57:17.738Z,102276.50
2023-03-28T06:59:44.162Z,102282.25
2023-03-28T07:02:11.586Z,102288.84
2023-03-28T07:04:38.103Z,102283.19
2023-03-28T07:07:04.690Z,102289.19
2023-03-28T07:09:31.316Z,102282.59
2023-03-28T07:11:57.702Z,102293.03
2023-03-28T07:14:24.133Z,102287.78
2023-03-28T07:16:50.636Z,102286.97
2023-03-28T07:19:17.071Z,102291.91
2023-03-28T07:21:43.739Z,102300.72
2023-03-28T07:24:10.253Z,102291.34
2023-03-28T07:26:36.653Z,102297.34
2023-03-28T07:29:03.573Z,102313.38
2023-03-28T07:31:30.009Z,102323.63
2023-03-28T07:33:58.111Z,102318.88
2023-03-28T07:36:26.827Z,102313.97
2023-03-28T07:38:53.383Z,102321.53
2023-03-28T07:41:20.014Z,102316.78
2023-03-28T07:43:46.399Z,102322.06
2023-03-28T07:46:14.412Z,102325.97
2023-03-28T07:48:41.154Z,102324.34
2023-03-28T07:51:09.400Z,102328.03
2023-03-28T07:53:37.664Z,102342.44
2023-03-28T07:56:05.061Z,102332.56
2023-03-28T07:58:31.516Z,102346.56
2023-03-28T08:01:04.650Z,102343.72
2023-03-28T08:03:31.278Z,102344.72
2023-03-28T08:06:02.667Z,102342.34
2023-03-28T08:08:29.850Z,102335.25
2023-03-28T08:10:56.242Z,102332.19
2023-03-28T08:13:22.947Z,102332.72
2023-03-28T08:15:53.599Z,102322.44
2023-03-28T08:18:21.484Z,102320.94
2023-03-28T08:20:48.526Z,102331.41
2023-03-28T08:23:15.455Z,102323.34
2023-03-28T08:25:42.389Z,102327.59
2023-03-28T08:28:09.717Z,102327.59
2023-03-28T08:30:36.381Z,102330.97
2023-03-28T08:33:04.568Z,102337.03
2023-03-28T08:35:31.938Z,102335.38
2023-03-28T08:37:58.824Z,102336.03
2023-03-28T08:40:28.271Z,102345.03
2023-03-28T08:43:36.581Z,102352.09
2023-03-28T08:46:03.452Z,102348.06
2023-03-28T08:48:42.049Z,102345.75
2023-03-28T08:51:38.433Z,102345.75
2023-03-28T08:54:21.481Z,102353.56
2023-03-28T08:56:53.046Z,102352.84
2023-03-28T08:59:26.472Z,102345.31
2023-03-28T09:01:52.957Z,102349.25
2023-03-28T09:04:27.979Z,102343.34
2023-03-28T09:07:00.308Z,102348.94
2023-03-28T09:09:53.268Z,102357.41
2023-03-28T09:12:31.766Z,102349.75
2023-03-28T09:15:07.258Z,102354.78
2023-03-28T09:17:38.528Z,102351.47
2023-03-28T09:20:11.197Z,102349.44
2023-03-28T09:22:46.302Z,102351.03
2023-03-28T09:25:36.211Z,102351.41
2023-03-28T09:28:23.418Z,102348.81
2023-03-28T09:30:51.761Z,102350.09
2023-03-28T09:33:28.895Z,102348.56
2023-03-28T09:35:57.160Z,102353.00
2023-03-28T09:38:32.585Z,102352.72
2023-03-28T09:41:01.375Z,102348.88
2023-03-28T09:43:46.971Z,102353.50
2023-03-28T09:46:18.696Z,102356.16
2023-03-28T09:48:45.281Z,102356.53
2023-03-28T09:51:16.974Z,102345.25
2023-03-28T09:53:43.877Z,102347.84
2023-03-28T09:56:21.226Z,102347.53
2023-03-28T09:58:53.611Z,102363.94
2023-03-28T10:01:49.153Z,102359.38
2023-03-28T10:04:36.940Z,102363.19
2023-03-28T10:07:09.421Z,102354.25
2023-03-28T10:09:47.991Z,102353.53
2023-03-28T10:12:21.221Z,102352.47
2023-03-28T10:14:47.684Z,102351.31
2023-03-28T10:17:16.977Z,102351.34
2023-03-28T10:19:47.315Z,102350.19
2023-03-28T10:22:16.998Z,102353.63
2023-03-28T10:24:46.152Z,102359.34
2023-03-28T10:27:19.054Z,102337.56
2023-03-28T10:29:46.318Z,102345.63
2023-03-28T10:32:27.158Z,102349.44
2023-03-28T10:35:01.217Z,102353.13
2023-03-28T10:37:30.380Z,102349.72
2023-03-28T10:40:06.992Z,102337.78
2023-03-28T10:42:44.825Z,102342.53
2023-03-28T10:45:33.232Z,102347.53
2023-03-28T10:48:00.980Z,102346.38
2023-03-28T10:50:38.037Z,102346.28
2023-03-28T10:53:31.215Z,102337.19
2023-03-28T10:56:06.054Z,102334.94
2023-03-28T10:58:57.664Z,102324.22
2023-03-28T11:01:33.353Z,102334.53
2023-03-28T11:04:30.832Z,102333.34
2023-03-28T11:07:30.339Z,102332.09
2023-03-28T11:10:10.609Z,102332.13
2023-03-28T11:12:54.982Z,102328.31
2023-03-28T11:15:31.540Z,102325.69
2023-03-28T11:18:13.616Z,102326.44
2023-03-28T11:21:01.697Z,102335.53
2023-03-28T11:23:48.969Z,102333.03
2023-03-28T11:26:30.225Z,102337.94
2023-03-28T11:29:18.377Z,102336.22
2023-03-28T11:32:07.129Z,102329.16
2023-03-28T11:34:42.748Z,102334.66
2023-03-28T11:37:23.217Z,102331.88
2023-03-28T11:39:58.413Z,102328.63
2023-03-28T11:42:30.597Z,102321.00
2023-03-28T11:45:04.758Z,102321.09
2023-03-28T11:47:38.345Z,102322.84
2023-03-28T11:50:09.181Z,102326.81
2023-03-28T11:52:48.033Z,102323.59
2023-03-28T11:55:26.423Z,102324.13
2023-03-28T11:57:57.952Z,102315.88
2023-03-28T12:00:34.627Z,102322.31
2023-03-28T12:03:16.951Z,102312.66
2023-03-28T12:05:47.237Z,102302.72
2023-03-28T12:08:17.769Z,102305.03
2023-03-28T12:10:46.985Z,102308.47
2023-03-28T12:13:17.004Z,102297.03
2023-03-28T12:15:50.260Z,102305.34
2023-03-28T12:18:35.586Z,102302.28
2023-03-28T12:21:23.555Z,102297.06
2023-03-28T12:23:59.530Z,102297.09
2023-03-28T12:26:33.437Z,102297.88
2023-03-28T12:29:08.747Z,102284.13
2023-03-28T12:31:47.749Z,102279.53
2023-03-28T12:34:23.505Z,102283.78
2023-03-28T12:36:54.329Z,102276.47
2023-03-28T12:39:41.680Z,102275.53
2023-03-28T12:42:12.032Z,102271.97
2023-03-28T12:44:52.682Z,102268.84
2023-03-28T12:47:24.876Z,102264.63
2023-03-28T12:49:56.945Z,102253.06
2023-03-28T12:52:26.947Z,102257.56
2023-03-28T12:55:02.063Z,102252.72
2023-03-28T12:57:40.840Z,102263.22
2023-03-28T13:00:17.895Z,102263.41
2023-03-28T13:02:58.986Z,102254.16
2023-03-28T13:05:31.955Z,102266.22
2023-03-28T13:08:08.975Z,102259.00
2023-03-28T13:10:41.757Z,102263.03
2023-03-28T13:13:43.735Z,102254.75
2023-03-28T13:16:16.194Z,102238.34
2023-03-28T13:18:47.930Z,102239.91
2023-03-28T13:21:50.477Z,102244.81
2023-03-28T13:24:26.065Z,102237.41
2023-03-28T13:27:00.780Z,102235.50
2023-03-28T13:29:44.830Z,102231.22
2023-03-28T13:32:20.632Z,102228.31
2023-03-28T13:34:54.285Z,102217.56
2023-03-28T13:37:23.475Z,102217.22
2023-03-28T13:39:51.453Z,102214.91
2023-03-28T13:42:30.120Z,102209.81
2023-03-28T13:44:59.847Z,102212.00
2023-03-28T13:47:33.121Z,102201.75
2023-03-28T13:50:04.419Z,102205.31
2023-03-28T13:52:30.950Z,102201.16
2023-03-28T13:55:02.064Z,102202.97
2023-03-28T13:57:28.779Z,102207.59
2023-03-28T13:59:58.658Z,102203.34
2023-03-28T14:02:36.360Z,102200.81
2023-03-28T14:05:11.849Z,102197.97
2023-03-28T14:07:38.328Z,102196.88
2023-03-28T14:10:39.051Z,102191.66
2023-03-28T14:13:08.495Z,102193.25
2023-03-28T14:15:36.518Z,102187.63
2023-03-28T14:18:03.623Z,102183.50
2023-03-28T14:20:32.476Z,102183.56
2023-03-28T14:23:01.021Z,102178.13
2023-03-28T14:25:28.807Z,102183.38
2023-03-28T14:27:56.748Z,102170.28
2023-03-28T14:30:40.208Z,102168.16
2023-03-28T14:33:12.001Z,102167.09
2023-03-28T14:35:42.377Z,102167.72
2023-03-28T14:38:28.115Z,102166.59
2023-03-28T14:40:54.856Z,102162.44
2023-03-28T14:43:28.446Z,102152.13
2023-03-28T14:45:56.602Z,102150.97
2023-03-28T14:48:26.623Z,102148.69
2023-03-28T14:50:53.879Z,102146.41
2023-03-28T14:53:26.067Z,102136.47
2023-03-28T14:55:54.691Z,102130.84
2023-03-28T14:58:25.033Z,102124.78
2023-03-28T15:00:54.259Z,102129.16
2023-03-28T15:03:42.172Z,102124.38
2023-03-28T15:06:14.684Z,102117.72
2023-03-28T15:08:41.358Z,102109.50
2023-03-28T15:11:12.704Z,102095.34
2023-03-28T15:13:40.090Z,102086.06
2023-03-28T15:16:08.318Z,102087.41
2023-03-28T15:18:49.068Z,102087.03
2023-03-28T15:21:15.635Z,102087.22
2023-03-28T15:23:55.859Z,102090.47
2023-03-28T15:26:27.730Z,102081.22
2023-03-28T15:28:55.724Z,102080.16
2023-03-28T15:31:22.531Z,102074.59
2023-03-28T15:33:51.466Z,102069.81
2023-03-28T15:36:19.847Z,102064.94
2023-03-28T15:38:49.790Z,102059.56
2023-03-28T15:41:27.872Z,102068.66
2023-03-28T15:43:54.142Z,102051.09
2023-03-28T15:46:22.207Z,102045.91
2023-03-28T15:48:48.856Z,102044.81
2023-03-28T15:51:17.572Z,102057.63
2023-03-28T15:53:48.043Z,102053.03
2023-03-28T15:56:29.650Z,102045.41
2023-03-28T15:59:01.505Z,102048.03
2023-03-28T16:01:30.619Z,102044.03
2023-03-28T16:04:31.238Z,102045.09
2023-03-28T16:07:13.022Z,102036.13
2023-03-28T16:09:43.176Z,102030.81
2023-03-28T16:12:12.816Z,102030.84
2023-03-28T16:14:59.484Z,102038.59
2023-03-28T16:17:28.963Z,102043.91
2023-03-28T16:19:56.452Z,102029.50
2023-03-28T16:22:23.622Z,102032.53
2023-03-28T16:24:51.877Z,102035.63
2023-03-28T16:27:18.867Z,102034.81
2023-03-28T16:29:45.590Z,102032.94
2023-03-28T16:32:16.264Z,102027.19
2023-03-28T16:34:43.407Z,102024.19
2023-03-28T16:37:10.347Z,102023.84
2023-03-28T16:39:37.570Z,102019.59
2023-03-28T16:42:04.972Z,102014.28
2023-03-28T16:44:32.511Z,102011.28
2023-03-28T16:46:59.776Z,102014.72
2023-03-28T16:49:26.234Z,102002.16
2023-03-28T16:51:54.674Z,101997.97
2023-03-28T16:54:21.753Z,101996.03
2023-03-28T16:56:48.440Z,101999.09
2023-03-28T16:59:14.912Z,101991.84
2023-03-28T17:01:43.015Z,101993.34
2023-03-28T17:04:09.719Z,101997.94
2023-03-28T17:06:36.544Z,101986.13
2023-03-28T17:09:04.762Z,101986.50
2023-03-28T17:11:31.645Z,101967.81
2023-03-28T17:13:58.012Z,101972.41
2023-03-28T17:16:24.688Z,101965.53
2023-03-28T17:18:51.304Z,101955.22
2023-03-28T17:21:18.560Z,101971.59
2023-03-28T17:23:47.833Z,101967.78
2023-03-28T17:26:14.989Z,101963.19
2023-03-28T17:28:43.397Z,101957.84
2023-03-28T17:31:12.808Z,101952.16
2023-03-28T17:33:39.348Z,101957.78
2023-03-28T17:36:15.138Z,101949.03
2023-03-28T17:38:42.309Z,101950.16
2023-03-28T17:41:09.141Z,101943.38
2023-03-28T17:43:35.997Z,101936.94
2023-03-28T17:46:02.789Z,101932.31
2023-03-28T17:48:29.352Z,101944.16
2023-03-28T17:50:56.241Z,101937.28
2023-03-28T17:53:22.934Z,101933.84
2023-03-28T17:55:52.827Z,101940.28
2023-03-28T17:58:19.939Z,101923.50
2023-03-28T18:00:46.770Z,101929.59
2023-03-28T18:03:13.246Z,101930.75
2023-03-28T18:05:39.910Z,101924.25
2023-03-28T18:08:06.503Z,101918.94
2023-03-28T18:10:32.937Z,101919.66
2023-03-28T18:12:59.321Z,101912.84
2023-03-28T18:15:25.939Z,101907.13
2023-03-28T18:17:52.371Z,101916.56
2023-03-28T18:20:19.023Z,101916.63
2023-03-28T18:22:45.401Z,101913.53
2023-03-28T18:25:11.831Z,101915.88
2023-03-28T18:27:38.200Z,101919.69
2023-03-28T18:30:08.124Z,101918.06
2023-03-28T18:32:36.249Z,101918.06
2023-03-28T18:35:06.875Z,101909.63
2023-03-28T18:37:34.388Z,101907.41
2023-03-28T18:40:01.682Z,101910.72
2023-03-28T18:42:28.448Z,101909.53
2023-03-28T18:44:54.882Z,101913.00
2023-03-28T18:47:21.330Z,101912.56
2023-03-28T18:49:48.330Z,101907.97
2023-03-28T18:52:15.579Z,101904.03
2023-03-28T18:54:45.831Z,101898.38
2023-03-28T18:57:12.282Z,101889.66
2023-03-28T18:59:40.300Z,101892.69
2023-03-28T19:02:11.951Z,101884.28
2023-03-28T19:04:38.461Z,101891.09
2023-03-28T19:07:06.074Z,101873.56
2023-03-28T19:09:32.518Z,101875.06
2023-03-28T19:11:58.986Z,101882.22
2023-03-28T19:14:25.482Z,101870.38
2023-03-28T19:16:51.977Z,101871.69
2023-03-28T19:19:18.659Z,101873.69
2023-03-28T19:21:45.132Z,101865.72
2023-03-28T19:24:11.642Z,101854.69
2023-03-28T19:26:38.530Z,101860.47
2023-03-28T19:29:04.953Z,101865.50
2023-03-28T19:31:31.753Z,101852.94
2023-03-28T19:33:58.134Z,101854.44
2023-03-28T19:36:24.609Z,101849.13
2023-03-28T19:38:51.066Z,101855.53
2023-03-28T19:41:22.194Z,101848.38
2023-03-28T19:43:48.975Z,101852.28
2023-03-28T19:46:20.266Z,101845.38
2023-03-28T19:48:46.733Z,101848.50
2023-03-28T19:51:14.168Z,101842.38
2023-03-28T19:53:40.741Z,101846.22
2023-03-28T19:56:07.677Z,101844.31
2023-03-28T19:58:34.193Z,101850.44
2023-03-28T20:01:01.609Z,101850.91
2023-03-28T20:03:28.182Z,101855.44
2023-03-28T20:05:54.651Z,101853.16
2023-03-28T20:08:21.504Z,101847.81
2023-03-28T20:10:50.014Z,101854.59
2023-03-28T20:13:16.942Z,101856.94
2023-03-28T20:15:44.704Z,101851.63
2023-03-28T20:18:14.445Z,101845.09
2023-03-28T20:20:44.011Z,101844.75
2023-03-28T20:23:11.675Z,101850.03
2023-03-28T20:25:38.240Z,101847.47
2023-03-28T20:28:04.825Z,101835.28
2023-03-28T20:30:32.098Z,101837.97
2023-03-28T20:32:58.886Z,101832.22
2023-03-28T20:35:27.349Z,101829.53
2023-03-28T20:37:54.320Z,101828.88
2023-03-28T20:40:22.078Z,101820.56
2023-03-28T20:42:50.542Z,101826.63
2023-03-28T20:45:22.733Z,101809.50
2023-03-28T20:47:56.344Z,101809.09
2023-03-28T20:50:26.884Z,101804.19
2023-03-28T20:52:53.513Z,101801.94
2023-03-28T20:55:19.872Z,101793.16
2023-03-28T20:57:46.266Z,101794.66
2023-03-28T21:00:14.740Z,101788.94
2023-03-28T21:02:41.478Z,101787.41
2023-03-28T21:05:08.289Z,101787.72
2023-03-28T21:07:34.984Z,101784.31
2023-03-28T21:10:01.391Z,101760.38
2023-03-28T21:12:27.850Z,101777.88
2023-03-28T21:14:55.567Z,101766.50
2023-03-28T21:17:25.257Z,101761.25
2023-03-28T21:19:53.061Z,101766.59
2023-03-28T21:22:20.855Z,101763.16
2023-03-28T21:24:48.314Z,101761.97
2023-03-28T21:27:16.370Z,101769.59
2023-03-28T21:29:42.889Z,101769.59
2023-03-28T21:32:10.705Z,101779.44
2023-03-28T21:34:37.804Z,101767.25
2023-03-28T21:37:04.597Z,101774.91
2023-03-28T21:39:31.597Z,101781.75
2023-03-28T21:41:58.053Z,101776.41
2023-03-28T21:44:24.846Z,101779.44
2023-03-28T21:46:51.387Z,101783.97
2023-03-28T21:49:19.276Z,101783.19
2023-03-28T21:51:45.770Z,101773.63
2023-03-28T21:54:12.214Z,101779.44
2023-03-28T21:56:38.689Z,101772.53
2023-03-28T21:59:05.097Z,101780.13
2023-03-28T22:01:31.603Z,101774.06
2023-03-28T22:03:58.181Z,101764.25
2023-03-28T22:06:25.098Z,101754.75
2023-03-28T22:08:52.847Z,101749.44
2023-03-28T22:11:27.333Z,101737.69
2023-03-28T22:14:05.021Z,101743.78
2023-03-28T22:16:37.452Z,101732.78
2023-03-28T22:19:11.290Z,101731.59
2023-03-28T22:21:37.783Z,101724.00
2023-03-28T22:24:06.935Z,101712.63
2023-03-28T22:26:33.310Z,101713.41
2023-03-28T22:28:59.979Z,101705.75
2023-03-28T22:31:26.612Z,101698.16
2023-03-28T22:33:53.634Z,101700.44
2023-03-28T22:36:20.420Z,101692.41
2023-03-28T22:38:46.893Z,101689.41
2023-03-28T22:41:13.461Z,101696.63
2023-03-28T22:43:42.610Z,101689.78
2023-03-28T22:46:10.491Z,101684.88
2023-03-28T22:48:38.867Z,101675.34
2023-03-28T22:51:11.441Z,101688.66
2023-03-28T22:53:38.990Z,101678.41
2023-03-28T22:56:06.599Z,101689.06
2023-03-28T22:58:33.916Z,101681.44
2023-03-28T23:01:00.603Z,101680.28
2023-03-28T23:03:27.820Z,101679.88
2023-03-28T23:05:55.128Z,101684.44
2023-03-28T23:08:22.318Z,101679.03
2023-03-28T23:10:48.965Z,101678.66
2023-03-28T23:13:16.359Z,101681.28
2023-03-28T23:15:43.642Z,101678.25
2023-03-28T23:18:10.256Z,101673.66
2023-03-28T23:20:38.025Z,101669.88
2023-03-28T23:23:04.560Z,101663.75
2023-03-28T23:25:31.043Z,101655.44
2023-03-28T23:27:57.493Z,101653.09
2023-03-28T23:30:23.865Z,101648.22
2023-03-28T23:32:50.675Z,101646.25
2023-03-28T23:35:17.178Z,101637.88
2023-03-28T23:37:46.404Z,101641.72
2023-03-28T23:40:16.214Z,101637.81
2023-03-28T23:42:44.040Z,101645.47
2023-03-28T23:45:11.774Z,101636.41
2023-03-28T23:47:38.417Z,101642.72
2023-03-28T23:50:05.433Z,101632.34
2023-03-28T23:52:32.116Z,101628.19
2023-03-28T23:54:58.488Z,101619.47
2023-03-28T23:57:25.269Z,101618.69
2023-03-28T23:59:51.878Z,101615.66
